Flight Track Log - Related Links

Times and Time Zones

All times are in EDT time to prevent confusion due to time zone crossing. See the N442PL flight status page for this flight to view local times or setup timezone preferences in your user account.

Time Position Orientation Groundspeed Altitude Reporting Facility
EDT Latitude Longitude Course Direction KTS MPH feet Rate Location/Type
Fri 05:29:11 PM 48.7681 -95.6342 153° Southeast 137 158 8,400  Level Minneapolis Center
Fri 05:30:14 PM 48.7225 -95.6039 156° South 147 169 11,100 1,860 Climbing Minneapolis Center
Fri 05:34:00 PM 48.4719 -95.4674 153° Southeast  Level Estimated
Fri 05:35:51 PM 48.4380 -95.4060 156° South 224 258 20,800  Level FlightAware ADS-B
Fri 05:36:35 PM 48.3950 -95.3770 156° South 233 268 21,800 682 Climbing FlightAware ADS-B
Fri 05:37:19 PM 48.3590 -95.3510 154° Southeast 233 268 21,800 1,231 Level FlightAware ADS-B
Fri 05:37:53 PM 48.3180 -95.3240 156° South 239 275 23,400 1,786 Climbing FlightAware ADS-B
Fri 05:38:43 PM 48.2670 -95.2890 155° Southeast 243 280 24,300 1,067 Climbing FlightAware ADS-B
Fri 05:39:23 PM 48.2260 -95.2600 155° Southeast 247 284 25,000 553 Climbing FlightAware ADS-B
Fri 05:39:59 PM 48.1860 -95.2330 156° South 273 314 25,000  Level FlightAware ADS-B
Fri 05:43:29 PM 47.9310 -95.0600 156° South 294 338 25,000  Level FlightAware ADS-B
Fri 05:44:04 PM 47.8890 -95.0320 156° South 295 339 25,000  Level FlightAware ADS-B
Fri 05:45:08 PM 47.8220 -94.9850 155° Southeast 295 339 25,000  Level FlightAware ADS-B
Fri 05:45:44 PM 47.7840 -94.9590 155° Southeast 295 339 25,000  Level FlightAware ADS-B
Fri 05:46:31 PM 47.7350 -94.9240 154° Southeast 295 339 25,000  Level FlightAware ADS-B
Fri 05:47:07 PM 47.6970 -94.8980 155° Southeast 295 339 25,000  Level FlightAware ADS-B
Fri 05:47:55 PM 47.6460 -94.8630 155° Southeast 295 339 25,000  Level FlightAware ADS-B
Fri 05:48:50 PM 47.5330 -94.7930 157° South 295 339 25,000  Level FlightAware ADS-B
Fri 05:49:31 PM 47.4810 -94.7590 156° South 294 338 25,000  Level FlightAware ADS-B
Fri 05:50:14 PM 47.4280 -94.7240 156° South 294 338 25,000  Level FlightAware ADS-B
Fri 05:50:54 PM 47.3780 -94.6910 156° South 295 339 25,000  Level FlightAware ADS-B
Fri 05:51:39 PM 47.3260 -94.6560 155° Southeast 296 341 25,000  Level FlightAware ADS-B
Fri 05:52:13 PM 47.2900 -94.6310 155° Southeast 296 341 25,000  Level FlightAware ADS-B
Fri 05:53:03 PM 47.2380 -94.5950 155° Southeast 296 341 25,000  Level FlightAware ADS-B
Fri 05:53:40 PM 47.1680 -94.5530 158° South 298 343 25,000  Level FlightAware ADS-B
Fri 05:54:24 PM 47.1130 -94.5170 156° South 299 344 25,000  Level FlightAware ADS-B
Fri 05:55:04 PM 47.0630 -94.4840 156° South 297 342 25,000  Level FlightAware ADS-B
Fri 05:56:20 PM 46.9670 -94.4220 156° South 297 342 25,000  Level FlightAware ADS-B
Fri 05:57:43 PM 46.8630 -94.3550 156° South 299 344 25,000  Level FlightAware ADS-B
Fri 05:58:25 PM 46.8100 -94.3210 156° South 299 344 25,000  Level FlightAware ADS-B
Fri 05:59:05 PM 46.7580 -94.2870 156° South 301 346 25,000  Level FlightAware ADS-B
Fri 05:59:49 PM 46.7030 -94.2520 156° South 300 345 25,000  Level FlightAware ADS-B
Fri 06:00:27 PM 46.6530 -94.2200 156° South 300 345 25,000  Level FlightAware ADS-B
Fri 06:01:13 PM 46.5950 -94.1830 156° South 302 348 25,000  Level FlightAware ADS-B
Fri 06:01:47 PM 46.5520 -94.1550 156° South 303 349 25,000  Level FlightAware ADS-B
Fri 06:02:27 PM 46.5010 -94.1230 157° South 304 350 25,000 -450 Level FlightAware ADS-B
Fri 06:03:07 PM 46.4480 -94.0890 156° South 317 365 24,400 -1,200 Descending FlightAware ADS-B
Fri 06:03:52 PM 46.3880 -94.0510 156° South 324 373 23,300 -867 Descending FlightAware ADS-B
Fri 06:04:37 PM 46.3330 -94.0160 156° South 323 372 23,100 -1,765 Descending FlightAware ADS-B
Fri 06:05:17 PM 46.2700 -93.9820 160° South 317 365 20,800 -2,582 Descending FlightAware ADS-B
Fri 06:05:56 PM 46.2170 -93.9530 159° South 311 358 19,700 -1,610 Descending FlightAware ADS-B
Fri 06:06:39 PM 46.1590 -93.9210 159° South 304 350 18,600 -1,500 Descending FlightAware ADS-B
Fri 06:07:24 PM 46.1010 -93.8890 159° South 295 339 17,500 -1,500 Descending FlightAware ADS-B
Fri 06:08:03 PM 46.0510 -93.8620 159° South 288 331 16,500 -1,446 Descending FlightAware ADS-B
Fri 06:08:47 PM 45.9970 -93.8320 159° South 285 328 15,500 -1,357 Descending FlightAware ADS-B
Fri 06:09:27 PM 45.9480 -93.8050 159° South 282 325 14,600 -1,395 Descending FlightAware ADS-B
Fri 06:10:13 PM 45.8920 -93.7750 160° South 283 326 13,500 -1,432 Descending FlightAware ADS-B
Fri 06:10:55 PM 45.8400 -93.7470 159° South 283 326 12,500 -1,350 Descending FlightAware ADS-B
Fri 06:11:33 PM 45.7940 -93.7210 158° South 278 320 11,700 -1,385 Descending FlightAware ADS-B
Fri 06:12:13 PM 45.7470 -93.6960 160° South 275 316 10,700 -1,378 Descending FlightAware ADS-B
Fri 06:12:47 PM 45.7060 -93.6740 159° South 275 316 10,000 -1,355 Descending FlightAware ADS-B
Fri 06:13:15 PM 45.6720 -93.6550 159° South 269 310 9,300 -1,429 Descending FlightAware ADS-B
Fri 06:13:29 PM 45.6570 -93.6470 160° South 267 307 9,000 -1,286 Descending FlightAware ADS-B
Fri 06:13:57 PM 45.6240 -93.6290 159° South 262 302 8,400 -1,320 Descending FlightAware ADS-B
Fri 06:14:19 PM 45.5990 -93.6160 160° South 259 298 7,900 -1,320 Descending FlightAware ADS-B
Fri 06:14:47 PM 45.5680 -93.5990 159° South 258 297 7,300 -1,125 Descending FlightAware ADS-B
Fri 06:15:07 PM 45.5460 -93.5870 159° South 254 292 7,000 -875 Descending FlightAware ADS-B
Fri 06:15:35 PM 45.5160 -93.5710 160° South 249 287 6,600 -750 Descending FlightAware ADS-B
Fri 06:16:03 PM 45.4860 -93.5550 159° South 244 281 6,300 -679 Descending FlightAware ADS-B
Fri 06:16:28 PM 45.4600 -93.5410 159° South 242 278 6,000 -679 Descending FlightAware ADS-B
Fri 06:16:56 PM 45.4310 -93.5250 159° South 238 274 5,700 -536 Descending FlightAware ADS-B
Fri 06:17:24 PM 45.4020 -93.5100 160° South 233 268 5,500 -536 Descending FlightAware ADS-B
Fri 06:17:52 PM 45.3730 -93.4940 159° South 235 270 5,200 -585 Descending FlightAware ADS-B
Fri 06:18:05 PM 45.3620 -93.4920 173° South 233 268 5,100 -545 Descending FlightAware ADS-B
Fri 06:18:36 PM 45.3270 -93.5020 191° South 232 267 4,800 -643 Descending FlightAware ADS-B
Fri 06:19:01 PM 45.3020 -93.5100 193° South 232 267 4,500 -600 Descending FlightAware ADS-B
Fri 06:19:26 PM 45.2740 -93.5190 193° South 226 260 4,300 -545 Descending FlightAware ADS-B
Fri 06:19:56 PM 45.2440 -93.5290 193° South 226 260 4,000 -643 Descending FlightAware ADS-B
Fri 06:20:22 PM 45.2170 -93.5380 193° South 224 258 3,700 -667 Descending FlightAware ADS-B
Fri 06:20:50 PM 45.1890 -93.5470 193° South 221 254 3,400 -536 Descending FlightAware ADS-B
Fri 06:21:18 PM 45.1620 -93.5560 193° South 219 252 3,200 -536 Descending FlightAware ADS-B
Fri 06:21:46 PM 45.1340 -93.5660 194° South 218 251 2,900 -556 Descending FlightAware ADS-B
Fri 06:22:12 PM 45.1080 -93.5750 194° South 214 246 2,700 -214 Descending FlightAware ADS-B
Fri 06:22:42 PM 45.0800 -93.5850 194° South 206 237 2,700  Level FlightAware ADS-B
Fri 06:23:08 PM 45.0570 -93.5920 192° South 203 234 2,700  Level FlightAware ADS-B
Fri 06:23:24 PM 45.0420 -93.5980 196° South 203 234 2,700  Level FlightAware ADS-B
Fri 06:23:52 PM 45.0170 -93.6060 193° South 201 231 2,700  Level FlightAware ADS-B
Fri 06:24:06 PM 45.0030 -93.6030 171° South 202 232 2,700  Level FlightAware ADS-B
Fri 06:24:34 PM 44.9790 -93.5890 158° South 204 235 2,700 -111 Level FlightAware ADS-B
Fri 06:25:00 PM 44.9570 -93.5750 156° South 208 239 2,600 -444 Descending FlightAware ADS-B
Fri 06:25:28 PM 44.9310 -93.5600 158° South 207 238 2,300 -310 Descending FlightAware ADS-B
Fri 06:25:58 PM 44.9270 -93.5570 152° Southeast 207 238 2,300 -436 Level FlightAware ADS-B
Fri 06:26:23 PM 44.8860 -93.5220 149° Southeast 202 232 1,900 -480 Descending FlightAware ADS-B
Fri 06:26:48 PM 44.8660 -93.5110 159° South 173 199 1,900 -150 Level FlightAware ADS-B
Fri 06:27:03 PM 44.8550 -93.5070 166° South 154 177 1,800 -774 Descending FlightAware ADS-B
Fri 06:27:50 PM 44.8320 -93.4930 157° South 129 148 1,100 -682 Descending FlightAware ADS-B
Fri 06:28:31 PM 44.8280 -93.4640 101° East 123 142 800 -439 Descending FlightAware ADS-B
Fri 06:36:00 PM 44.8275 -93.4586 215° Southwest  Level Estimated
Fri 06:37:00 PM 44.8275 -93.4586 215° Southwest  Level Estimated
Fri 06:38:00 PM 44.8275 -93.4586 215° Southwest  Level Estimated

Login

Don't have an account? Register now (free) for customized features, flight alerts, and more!